Time;durP1;ratioP1;P1;durP2;ratioP2;P2;SDS_P1;SDS_P2;PMS_P1;PMS_P2;Temp;Humidity;BMP_temperature;BMP_pressure;BME280_temperature;BME280_humidity;BME280_pressure;Samples;Min_cycle;Max_cycle;Signal;HPM_P1;HPM_P2
2021/07/10 00:01:18;;;;;;;4.33;3.60;;;;;;;27.71;48.98;101108.98;128381;1087;64147;-86
2021/07/10 00:04:06;;;;;;;4.73;3.67;;;;;;;27.69;49.05;101106.42;128391;1087;64215;-85
2021/07/10 00:06:35;;;;;;;4.43;3.37;;;;;;;27.69;49.15;101097.41;128036;1087;64189;-86
2021/07/10 00:09:22;;;;;;;4.93;3.63;;;;;;;27.70;49.14;101101.84;128400;1087;64821;-85
2021/07/10 00:12:07;;;;;;;4.90;4.00;;;;;;;27.71;49.06;101095.42;128367;1087;64182;-85
2021/07/10 00:14:37;;;;;;;5.40;3.63;;;;;;;27.71;49.23;101095.42;128384;1085;64134;-86
2021/07/10 00:17:14;;;;;;;5.33;3.33;;;;;;;27.71;49.08;101098.14;128362;1086;64288;-86
2021/07/10 00:19:41;;;;;;;4.30;3.57;;;;;;;27.71;49.06;101098.14;128377;1085;64064;-85
2021/07/10 00:22:19;;;;;;;5.30;3.67;;;;;;;27.70;49.10;101086.45;128364;1087;64122;-86
2021/07/10 00:25:08;;;;;;;4.67;3.57;;;;;;;27.71;49.03;101090.00;128372;1087;64106;-85
2021/07/10 00:27:59;;;;;;;4.90;3.60;;;;;;;27.70;49.15;101093.70;128398;1084;62081;-86
2021/07/10 00:30:28;;;;;;;4.90;3.80;;;;;;;27.70;49.25;101093.70;128387;1087;64217;-85
2021/07/10 00:32:57;;;;;;;4.20;3.43;;;;;;;27.71;49.30;101087.29;128400;1086;64223;-86
2021/07/10 00:35:32;;;;;;;5.40;3.70;;;;;;;27.70;49.15;101091.87;128366;1085;64137;-85
2021/07/10 00:38:01;;;;;;;5.30;3.83;;;;;;;27.70;49.19;101088.28;128356;1087;64105;-86
2021/07/10 00:40:31;;;;;;;4.73;3.60;;;;;;;27.70;48.96;101100.00;128387;1087;62175;-85
2021/07/10 00:43:08;;;;;;;4.93;3.80;;;;;;;27.69;49.14;101098.28;128374;1087;64134;-85
2021/07/10 00:45:39;;;;;;;5.53;3.60;;;;;;;27.70;49.25;101090.99;128396;1087;64306;-84
2021/07/10 00:48:06;;;;;;;4.87;3.73;;;;;;;27.69;49.15;101095.58;128412;1085;64269;-85
2021/07/10 00:50:32;;;;;;;5.03;3.40;;;;;;;27.69;49.22;101082.02;128396;1087;64204;-85
2021/07/10 00:52:59;;;;;;;4.60;3.53;;;;;;;27.69;49.50;101081.14;128374;1086;64012;-85
2021/07/10 00:55:27;;;;;;;4.40;3.57;;;;;;;27.69;49.17;101090.16;128372;1086;64153;-85
2021/07/10 00:58:14;;;;;;;4.67;3.60;;;;;;;27.69;49.19;101081.14;128398;1087;64143;-85
2021/07/10 01:00:41;;;;;;;5.67;4.00;;;;;;;27.68;49.32;101083.01;128420;1087;64246;-85
2021/07/10 01:03:14;;;;;;;5.20;3.50;;;;;;;27.69;49.27;101081.14;128375;1087;64099;-86
2021/07/10 01:05:42;;;;;;;4.50;3.63;;;;;;;27.68;49.20;101074.03;128348;1086;64288;-85
2021/07/10 01:08:12;;;;;;;4.70;3.50;;;;;;;27.68;49.43;101077.59;128337;1087;64102;-85
2021/07/10 01:10:41;;;;;;;4.93;3.70;;;;;;;27.68;49.27;101074.88;128384;1085;64096;-85
2021/07/10 01:13:11;;;;;;;6.07;3.63;;;;;;;27.67;49.37;101070.44;128369;1086;64064;-85
2021/07/10 01:15:38;;;;;;;5.30;3.50;;;;;;;27.68;49.24;101064.02;128397;1087;64211;-86
2021/07/10 01:18:26;;;;;;;5.27;3.80;;;;;;;27.67;49.43;101056.04;128366;1087;64214;-85
2021/07/10 01:20:56;;;;;;;4.70;3.40;;;;;;;27.67;49.37;101059.59;128378;1086;64150;-86
2021/07/10 01:23:34;;;;;;;5.33;3.30;;;;;;;27.67;49.57;101058.75;128387;1086;64102;-85
2021/07/10 01:26:14;;;;;;;4.50;3.33;;;;;;;27.66;49.37;101047.06;128357;1087;64315;-85
2021/07/10 01:28:54;;;;;;;5.07;3.73;;;;;;;27.67;49.36;101050.62;128344;1087;64312;-84
2021/07/10 01:31:24;;;;;;;4.30;3.63;;;;;;;27.66;49.56;101055.20;128401;1087;64144;-84
2021/07/10 01:34:02;;;;;;;5.47;3.23;;;;;;;27.67;49.59;101046.03;128382;1086;64144;-85
2021/07/10 01:36:35;;;;;;;4.50;3.60;;;;;;;27.67;49.47;101050.62;128353;1086;62825;-85
2021/07/10 01:39:05;;;;;;;5.07;3.77;;;;;;;27.67;49.35;101050.62;128380;1087;64259;-84
2021/07/10 01:41:41;;;;;;;4.83;3.50;;;;;;;27.67;49.54;101050.62;128390;1087;64287;-84
2021/07/10 01:44:08;;;;;;;4.40;3.40;;;;;;;27.66;49.43;101046.19;128352;1087;64248;-86
2021/07/10 01:46:41;;;;;;;4.77;3.60;;;;;;;27.67;49.64;101040.61;128361;1087;64173;-84
2021/07/10 01:49:12;;;;;;;5.37;3.37;;;;;;;27.67;49.43;101034.34;128354;1087;64179;-85
2021/07/10 01:51:48;;;;;;;4.67;3.80;;;;;;;27.67;49.35;101042.48;128392;1087;61661;-84
2021/07/10 01:54:34;;;;;;;4.53;3.30;;;;;;;27.66;49.46;101033.50;128351;1087;64301;-86
2021/07/10 01:57:07;;;;;;;4.50;3.30;;;;;;;27.66;49.42;101033.50;128335;1087;64280;-85
2021/07/10 01:59:38;;;;;;;4.60;3.47;;;;;;;27.66;49.43;101040.77;128399;1087;64285;-85
2021/07/10 02:02:07;;;;;;;5.23;3.70;;;;;;;27.65;49.39;101036.33;128415;1086;64140;-86
2021/07/10 02:04:51;;;;;;;6.13;3.63;;;;;;;27.67;49.57;101028.92;128363;1085;64709;-86
2021/07/10 02:07:25;;;;;;;4.80;3.40;;;;;;;27.65;49.64;101031.78;128389;1087;62157;-85
2021/07/10 02:09:52;;;;;;;5.93;3.80;;;;;;;27.66;49.58;101024.49;128388;1087;64269;-85
2021/07/10 02:12:24;;;;;;;4.40;3.60;;;;;;;27.65;49.44;101028.20;128407;1087;64230;-85
2021/07/10 02:14:51;;;;;;;5.20;3.33;;;;;;;27.65;49.48;101036.33;129119;1087;61818;-84
2021/07/10 02:17:17;;;;;;;4.63;3.43;;;;;;;27.66;49.64;101044.34;128541;1087;64709;-84
2021/07/10 02:19:47;;;;;;;6.00;3.60;;;;;;;27.66;49.58;101038.05;128363;1087;64131;-85
2021/07/10 02:22:18;;;;;;;5.00;3.50;;;;;;;27.66;49.61;101032.63;128392;1087;63993;-84
2021/07/10 02:24:54;;;;;;;4.57;3.37;;;;;;;27.66;49.54;101040.77;128366;1087;64134;-85
2021/07/10 02:27:22;;;;;;;7.23;3.47;;;;;;;27.66;49.54;101033.50;128363;1087;64179;-84
2021/07/10 02:29:51;;;;;;;5.83;3.67;;;;;;;27.66;49.48;101040.77;128351;1087;64160;-84
2021/07/10 02:32:20;;;;;;;4.90;3.93;;;;;;;27.66;49.49;101043.47;128372;1087;64134;-84
2021/07/10 02:35:06;;;;;;;5.03;3.43;;;;;;;27.64;49.72;101046.34;128352;1087;64294;-84
2021/07/10 02:37:37;;;;;;;4.53;3.47;;;;;;;27.65;49.52;101041.76;128351;1087;64188;-85
2021/07/10 02:40:14;;;;;;;4.47;3.57;;;;;;;27.64;49.63;101046.34;128371;1085;64147;-85
2021/07/10 02:42:44;;;;;;;5.23;3.67;;;;;;;27.64;49.58;101043.63;128387;1087;64195;-85
2021/07/10 02:45:14;;;;;;;4.47;3.43;;;;;;;27.64;49.73;101038.20;128354;1087;64099;-85
2021/07/10 02:47:43;;;;;;;4.40;3.40;;;;;;;27.65;49.63;101044.47;128392;1087;64230;-85
2021/07/10 02:50:39;;;;;;;5.10;3.40;;;;;;;27.64;49.60;101045.50;128359;1087;64339;-86
2021/07/10 02:53:11;;;;;;;5.47;3.43;;;;;;;27.64;49.64;101048.21;128397;1085;64123;-86
2021/07/10 02:55:57;;;;;;;5.23;3.50;;;;;;;27.64;49.73;101042.78;128375;1087;64138;-85
2021/07/10 02:58:34;;;;;;;;;;;;;;;27.63;49.78;101041.06;128395;1087;64188;-86
2021/07/10 03:01:00;;;;;;;4.23;3.30;;;;;;;27.61;49.86;101038.51;128394;1087;64364;-85
2021/07/10 03:03:59;;;;;;;5.30;3.47;;;;;;;27.61;49.51;101035.80;128378;1087;64211;-85
2021/07/10 03:06:27;;;;;;;6.20;3.50;;;;;;;27.62;49.80;101032.05;128368;1087;64313;-85
2021/07/10 03:09:20;;;;;;;4.57;3.50;;;;;;;27.61;49.70;101035.80;128392;1086;64170;-85
2021/07/10 03:11:51;;;;;;;5.50;3.30;;;;;;;27.62;49.63;101025.80;128352;1086;64159;-85
2021/07/10 03:14:29;;;;;;;4.20;3.40;;;;;;;27.63;49.75;101024.80;128389;1085;64175;-85
2021/07/10 03:17:05;;;;;;;4.00;3.30;;;;;;;27.62;49.75;101018.50;128358;1085;64189;-85
2021/07/10 03:19:32;;;;;;;5.00;3.50;;;;;;;27.62;49.84;101017.66;128406;1087;64217;-85
2021/07/10 03:22:19;;;;;;;4.70;3.23;;;;;;;27.62;49.76;101034.77;128394;1085;64135;-85
2021/07/10 03:24:58;;;;;;;4.73;3.40;;;;;;;27.63;49.79;101024.80;128405;1086;64214;-85
2021/07/10 03:27:33;;;;;;;4.93;3.40;;;;;;;27.63;49.74;101022.09;128365;1087;64167;-84
2021/07/10 03:30:13;;;;;;;3.93;3.17;;;;;;;27.63;49.78;101024.80;128357;1087;64150;-85
2021/07/10 03:32:39;;;;;;;5.37;3.50;;;;;;;27.63;49.65;101030.22;128399;1085;64182;-84
2021/07/10 03:35:15;;;;;;;4.20;3.30;;;;;;;27.63;49.65;101038.36;128376;1087;64241;-85
2021/07/10 03:37:44;;;;;;;4.53;3.60;;;;;;;27.63;49.70;101032.93;128392;1087;63943;-86
2021/07/10 03:40:16;;;;;;;4.40;3.40;;;;;;;27.63;49.71;101028.35;128362;1086;64106;-85
2021/07/10 03:42:46;;;;;;;4.55;3.35;;;;;;;27.63;49.68;101022.93;128412;1087;62148;-85
2021/07/10 03:45:32;;;;;;;4.60;3.20;;;;;;;27.64;49.55;101037.36;128395;1087;64138;-85
2021/07/10 03:48:01;;;;;;;4.23;3.73;;;;;;;27.64;49.88;101021.09;128403;1087;64114;-85
2021/07/10 03:50:50;;;;;;;5.23;3.57;;;;;;;27.64;49.75;101021.09;128349;1086;64079;-86
2021/07/10 03:53:37;;;;;;;;;;;;;;;;;;;;;
2021/07/10 03:56:07;;;;;;;5.30;3.33;;;;;;;27.63;49.65;101012.08;128387;1087;64279;-86
2021/07/10 03:58:54;;;;;;;3.93;3.13;;;;;;;27.63;49.80;101009.37;128325;1087;64287;-85
2021/07/10 04:01:20;;;;;;;4.90;3.27;;;;;;;27.62;49.85;100999.52;128379;1087;64327;-85
2021/07/10 04:03:49;;;;;;;4.33;3.47;;;;;;;27.64;49.50;101007.53;128390;1087;64159;-85
2021/07/10 04:06:26;;;;;;;5.20;3.40;;;;;;;27.64;49.59;101004.82;128391;1087;64150;-85
2021/07/10 04:09:03;;;;;;;4.60;3.37;;;;;;;27.64;49.62;101010.24;127940;1087;64147;-86
2021/07/10 04:11:29;;;;;;;4.33;3.20;;;;;;;27.64;49.70;101008.38;128360;1087;64203;-86
2021/07/10 04:13:56;;;;;;;5.67;3.20;;;;;;;27.64;49.50;101002.95;128365;1085;64134;-86
2021/07/10 04:16:42;;;;;;;4.50;3.50;;;;;;;27.65;49.46;101006.50;128098;1086;64147;-85
2021/07/10 04:19:19;;;;;;;4.60;3.40;;;;;;;27.65;49.65;101007.38;127961;1087;63960;-85
2021/07/10 04:21:53;;;;;;;4.57;3.10;;;;;;;27.65;49.65;101004.67;128360;1087;64125;-86
2021/07/10 04:24:19;;;;;;;4.20;3.10;;;;;;;27.66;49.54;101000.95;127964;1087;64272;-85
2021/07/10 04:26:55;;;;;;;4.33;3.43;;;;;;;27.66;49.72;101000.08;128059;1085;64289;-85
2021/07/10 04:29:38;;;;;;;;;;;;;;;;;;;;;
2021/07/10 04:32:21;;;;;;;4.77;3.40;;;;;;;27.67;49.71;100994.51;128376;1087;64103;-85
2021/07/10 04:34:51;;;;;;;4.70;3.40;;;;;;;27.68;49.70;101000.80;128381;1087;64099;-86
2021/07/10 04:37:37;;;;;;;4.37;3.37;;;;;;;27.69;49.51;101011.50;128014;1087;64137;-86
2021/07/10 04:40:10;;;;;;;4.80;3.00;;;;;;;27.70;49.68;101012.34;128373;1087;64751;-85
2021/07/10 04:42:40;;;;;;;4.00;3.00;;;;;;;27.71;49.79;101005.92;128351;1087;64134;-85
2021/07/10 04:45:17;;;;;;;4.35;2.95;;;;;;;27.72;49.50;101010.35;128374;1087;64288;-85
2021/07/10 04:47:43;;;;;;;4.77;3.00;;;;;;;27.72;49.84;101005.77;128426;1085;64181;-85
2021/07/10 04:50:13;;;;;;;3.80;3.10;;;;;;;27.74;49.79;101016.46;128388;1085;64696;-84
2021/07/10 04:52:46;;;;;;;4.97;3.03;;;;;;;27.74;49.80;101006.48;128357;1087;64156;-86
2021/07/10 04:55:14;;;;;;;4.80;3.00;;;;;;;27.75;50.05;101008.17;128381;1086;64779;-85
2021/07/10 04:57:46;;;;;;;3.97;2.87;;;;;;;27.76;49.89;101017.19;128414;1087;64105;-85
2021/07/10 05:00:19;;;;;;;4.50;2.90;;;;;;;27.78;50.07;101011.61;128358;1086;64285;-85
2021/07/10 05:02:45;;;;;;;4.17;2.97;;;;;;;27.78;50.22;101015.16;128367;1087;63589;-86
2021/07/10 05:05:12;;;;;;;3.87;2.77;;;;;;;27.80;50.07;101017.75;128372;1087;64155;-86
2021/07/10 05:07:38;;;;;;;3.90;2.90;;;;;;;27.82;49.88;101026.58;128375;1087;64925;-85
2021/07/10 05:10:06;;;;;;;4.23;3.20;;;;;;;27.82;50.06;101021.16;128363;1087;64165;-86
2021/07/10 05:12:35;;;;;;;5.13;2.97;;;;;;;27.83;49.94;101023.71;128326;1086;64291;-85
2021/07/10 05:15:02;;;;;;;4.33;2.90;;;;;;;27.84;50.04;101022.72;128334;1087;64129;-86
2021/07/10 05:17:34;;;;;;;4.17;2.90;;;;;;;27.84;49.89;101025.42;128039;1087;62925;-86
2021/07/10 05:20:04;;;;;;;4.73;3.20;;;;;;;27.86;49.93;101025.27;128367;1087;64287;-85
2021/07/10 05:22:30;;;;;;;5.23;3.00;;;;;;;27.86;50.03;101020.72;128371;1086;64141;-86
2021/07/10 05:24:56;;;;;;;5.60;2.90;;;;;;;27.87;50.18;101027.83;128386;1085;64131;-85
2021/07/10 05:27:23;;;;;;;4.00;3.03;;;;;;;27.88;49.68;101024.13;128397;1087;64162;-86
2021/07/10 05:29:52;;;;;;;4.30;2.90;;;;;;;27.89;49.83;101031.27;128380;1085;61664;-85
2021/07/10 05:32:21;;;;;;;4.83;2.87;;;;;;;27.90;50.15;101032.11;128369;1087;64565;-85
2021/07/10 05:34:57;;;;;;;4.30;2.90;;;;;;;27.90;50.03;101027.55;128002;1087;64208;-85
2021/07/10 05:37:24;;;;;;;4.33;2.90;;;;;;;27.92;50.07;101033.67;128388;1086;64301;-84
2021/07/10 05:39:52;;;;;;;5.30;3.30;;;;;;;27.93;49.85;101034.55;128396;1087;64099;-84
2021/07/10 05:42:24;;;;;;;4.10;2.97;;;;;;;27.95;50.07;101039.81;128404;1087;64229;-85
2021/07/10 05:44:51;;;;;;;4.33;3.07;;;;;;;27.95;49.96;101042.53;128359;1087;64471;-85
2021/07/10 05:47:20;;;;;;;5.47;3.00;;;;;;;27.95;49.70;101045.23;128393;1087;64256;-85
2021/07/10 05:49:46;;;;;;;4.73;2.73;;;;;;;27.96;49.99;101055.94;128356;1087;64150;-86
2021/07/10 05:52:16;;;;;;;4.43;2.70;;;;;;;27.98;49.94;101063.92;128397;1085;64150;-85
2021/07/10 05:54:51;;;;;;;3.77;2.80;;;;;;;27.99;49.74;101063.77;128357;1087;64156;-86
2021/07/10 05:57:17;;;;;;;3.83;2.80;;;;;;;27.99;49.89;101062.92;128421;1087;64310;-86
2021/07/10 05:59:43;;;;;;;3.53;2.77;;;;;;;28.01;49.77;101066.36;128468;1086;64616;-85
2021/07/10 06:02:10;;;;;;;4.17;3.20;;;;;;;28.00;50.05;101070.91;128400;1087;64093;-86
2021/07/10 06:04:46;;;;;;;4.33;2.80;;;;;;;28.01;49.83;101064.52;128389;1086;64170;-86
2021/07/10 06:07:21;;;;;;;4.10;3.00;;;;;;;28.03;49.81;101061.66;128380;1085;64121;-86
2021/07/10 06:09:49;;;;;;;6.63;3.00;;;;;;;28.04;50.00;101068.80;128411;1086;63965;-86
2021/07/10 06:12:33;;;;;;;3.90;2.90;;;;;;;28.04;49.82;101069.64;128357;1086;64134;-85
2021/07/10 06:15:26;;;;;;;5.20;2.83;;;;;;;28.04;49.71;101060.66;128388;1086;64374;-85
2021/07/10 06:18:00;;;;;;;4.43;3.27;;;;;;;28.05;49.94;101056.91;128399;1086;64220;-86
2021/07/10 06:20:41;;;;;;;;;;;;;;;;;;;;;
2021/07/10 06:23:21;;;;;;;;;;;;;;;;;;;;;
2021/07/10 06:25:56;;;;;;;4.60;3.00;;;;;;;28.08;49.98;101070.20;128406;1087;64101;-86
2021/07/10 06:28:31;;;;;;;4.37;2.90;;;;;;;28.08;49.78;101076.48;128424;1085;64259;-85
2021/07/10 06:30:58;;;;;;;4.35;2.80;;;;;;;28.08;50.00;101081.91;128363;1085;64146;-85
2021/07/10 06:33:24;;;;;;;4.00;2.97;;;;;;;28.09;49.67;101071.89;128251;1086;64103;-85
2021/07/10 06:35:51;;;;;;;3.80;3.00;;;;;;;28.09;50.09;101070.05;128217;1087;64110;-85
2021/07/10 06:38:17;;;;;;;4.63;3.10;;;;;;;28.10;49.95;101079.03;128206;1086;64133;-85
2021/07/10 06:40:44;;;;;;;4.10;2.97;;;;;;;28.10;49.63;101076.33;128202;1087;62260;-85
2021/07/10 06:43:10;;;;;;;3.83;2.80;;;;;;;28.11;49.71;101078.04;128217;1085;64345;-85
2021/07/10 06:45:37;;;;;;;4.20;3.00;;;;;;;28.12;49.53;101082.47;128243;1087;64187;-85
2021/07/10 06:48:04;;;;;;;4.10;3.20;;;;;;;28.12;49.76;101079.75;128206;1087;64252;-85
2021/07/10 06:50:30;;;;;;;4.77;3.10;;;;;;;28.13;49.89;101080.59;128337;1085;64128;-86
2021/07/10 06:52:57;;;;;;;4.40;3.03;;;;;;;28.13;49.79;101081.47;128363;1087;64227;-85
2021/07/10 06:55:23;;;;;;;3.83;2.97;;;;;;;28.14;49.83;101082.31;128347;1087;64160;-85
2021/07/10 06:57:53;;;;;;;5.20;3.20;;;;;;;28.13;50.03;101078.76;128400;1085;64596;-85
2021/07/10 07:00:30;;;;;;;;;;;;;;;;;;;;;
2021/07/10 07:02:58;;;;;;;4.40;3.00;;;;;;;28.13;49.60;101070.62;128387;1086;64134;-85
2021/07/10 07:05:26;;;;;;;4.68;3.03;;;;;;;28.13;49.97;101073.33;128348;1087;64106;-85
2021/07/10 07:08:02;;;;;;;4.70;3.13;;;;;;;28.13;49.74;101072.45;128386;1087;64145;-85
2021/07/10 07:10:49;;;;;;;3.78;2.88;;;;;;;28.13;49.81;101073.33;128387;1086;64131;-85
2021/07/10 07:13:21;;;;;;;4.07;3.07;;;;;;;28.13;49.66;101076.05;128361;1087;64148;-86
2021/07/10 07:15:59;;;;;;;;;;;;;;;;;;;;;
2021/07/10 07:18:41;;;;;;;3.93;2.73;;;;;;;28.12;50.01;101077.04;128391;1087;64006;-85
2021/07/10 07:21:08;;;;;;;4.67;3.37;;;;;;;28.13;49.61;101073.33;128361;1087;64160;-86
2021/07/10 07:23:35;;;;;;;3.97;2.63;;;;;;;28.13;49.77;101072.45;128024;1086;64218;-86
2021/07/10 07:26:02;;;;;;;4.53;3.10;;;;;;;28.13;49.58;101080.59;128362;1086;65049;-85
2021/07/10 07:28:33;;;;;;;5.20;3.10;;;;;;;28.13;49.83;101072.45;128392;1086;64210;-86
2021/07/10 07:31:01;;;;;;;3.83;2.97;;;;;;;28.13;49.82;101075.17;128360;1085;64164;-86
2021/07/10 07:33:33;;;;;;;3.73;2.73;;;;;;;28.12;49.76;101077.04;128415;1087;64105;-85
2021/07/10 07:36:02;;;;;;;4.57;3.00;;;;;;;28.12;49.89;101076.16;128385;1086;64296;-85
2021/07/10 07:38:37;;;;;;;3.87;2.80;;;;;;;28.12;49.79;101070.73;128071;1087;64169;-86
2021/07/10 07:41:04;;;;;;;4.63;3.00;;;;;;;28.13;49.46;101073.33;128359;1087;64977;-86
2021/07/10 07:43:35;;;;;;;4.45;3.05;;;;;;;28.12;49.74;101074.33;128370;1086;64211;-86
2021/07/10 07:46:04;;;;;;;3.90;2.60;;;;;;;28.12;49.62;101071.61;128364;1086;64345;-86
2021/07/10 07:48:44;;;;;;;3.70;2.67;;;;;;;28.12;49.68;101065.31;128392;1087;64006;-86
2021/07/10 07:51:16;;;;;;;;;;;;;;;28.10;49.69;101065.47;128405;1087;64160;-86
2021/07/10 07:53:43;;;;;;;3.97;2.50;;;;;;;28.10;49.63;101070.89;128372;1087;64099;-86
2021/07/10 07:56:24;;;;;;;5.23;3.47;;;;;;;28.09;49.67;101064.63;128376;1087;64231;-85
2021/07/10 07:58:50;;;;;;;4.13;2.90;;;;;;;28.10;49.65;101065.47;128397;1085;63971;-85
2021/07/10 08:01:36;;;;;;;;;;;;;;;;;;;;;
2021/07/10 08:04:09;;;;;;;3.97;2.33;;;;;;;28.10;49.38;101054.61;128311;1086;64134;-85
2021/07/10 08:06:38;;;;;;;3.93;2.77;;;;;;;28.11;49.43;101055.48;128360;1087;64301;-84
2021/07/10 08:09:17;;;;;;;4.07;2.60;;;;;;;28.10;49.38;101049.19;128410;1085;64106;-86
2021/07/10 08:11:44;;;;;;;3.83;2.83;;;;;;;28.11;49.68;101067.19;128011;1087;64135;-86
2021/07/10 08:14:13;;;;;;;3.97;2.67;;;;;;;28.11;49.61;101059.04;128361;1087;64143;-86
2021/07/10 08:16:41;;;;;;;3.87;2.90;;;;;;;28.11;49.19;101058.20;128368;1086;64138;-86
2021/07/10 08:19:10;;;;;;;4.00;2.80;;;;;;;28.10;49.64;101051.89;128401;1085;64174;-86
2021/07/10 08:21:42;;;;;;;4.23;2.80;;;;;;;28.12;49.33;101051.74;128359;1087;64093;-85
2021/07/10 08:24:08;;;;;;;4.10;2.90;;;;;;;28.11;49.33;101047.34;128362;1087;64141;-85
2021/07/10 08:26:34;;;;;;;4.55;2.90;;;;;;;28.11;49.16;101045.47;128377;1087;64368;-85
2021/07/10 08:29:05;;;;;;;4.03;2.70;;;;;;;28.11;49.59;101045.47;128363;1087;64131;-85
2021/07/10 08:31:49;;;;;;;4.03;2.90;;;;;;;28.11;49.57;101041.92;128377;1085;64291;-85
2021/07/10 08:34:29;;;;;;;3.63;2.60;;;;;;;28.11;49.53;101050.06;128357;1086;64150;-85
2021/07/10 08:36:55;;;;;;;3.97;2.73;;;;;;;28.11;49.18;101053.61;128375;1085;64101;-85
2021/07/10 08:39:42;;;;;;;3.37;2.60;;;;;;;28.11;49.22;101067.19;128391;1087;64282;-85
2021/07/10 08:42:09;;;;;;;;;;;;;;;28.10;49.22;101060.04;128420;1087;64192;-85
2021/07/10 08:44:35;;;;;;;4.00;3.00;;;;;;;28.11;49.18;101052.77;128350;1087;64221;-84
2021/07/10 08:47:15;;;;;;;4.88;2.78;;;;;;;28.11;49.06;101053.61;128372;1087;64182;-86
2021/07/10 08:49:55;;;;;;;;;;;;;;;;;;;;;
2021/07/10 08:52:21;;;;;;;3.80;2.80;;;;;;;28.10;49.33;101054.61;128429;1087;64157;-87
2021/07/10 08:54:48;;;;;;;5.30;2.93;;;;;;;28.09;49.46;101053.77;128326;1087;64102;-85
2021/07/10 08:57:26;;;;;;;;;;;;;;;;;;;;;
2021/07/10 09:00:39;;;;;;;4.58;2.90;;;;;;;28.11;49.38;101047.34;128379;1085;64144;-85
2021/07/10 09:03:07;;;;;;;3.83;2.67;;;;;;;28.10;49.03;101046.47;128383;1087;63968;-86
2021/07/10 09:05:40;;;;;;;3.60;2.70;;;;;;;28.10;49.30;101043.75;128370;1086;64211;-85
2021/07/10 09:08:26;;;;;;;3.80;2.60;;;;;;;28.10;49.16;101043.75;128372;1086;64272;-84
2021/07/10 09:11:07;;;;;;;3.87;2.80;;;;;;;28.10;49.36;101038.33;128403;1085;64384;-85
2021/07/10 09:13:50;;;;;;;3.90;2.60;;;;;;;28.10;49.39;101043.75;128376;1086;64109;-86
2021/07/10 09:16:40;;;;;;;3.50;2.80;;;;;;;28.10;49.02;101038.33;128357;1085;64243;-86
2021/07/10 09:19:08;;;;;;;3.70;2.70;;;;;;;28.10;49.04;101041.05;128375;1087;64143;-85
2021/07/10 09:22:08;;;;;;;;;;;;;;;;;;;;;
2021/07/10 09:24:38;;;;;;;3.63;2.53;;;;;;;28.10;49.42;101035.61;128048;1086;64121;-84
2021/07/10 09:27:07;;;;;;;4.77;2.77;;;;;;;28.11;49.28;101028.34;128374;1087;64271;-85
2021/07/10 09:29:48;;;;;;;4.10;2.67;;;;;;;28.11;49.21;101028.34;128338;1085;64129;-84
2021/07/10 09:32:25;;;;;;;3.47;2.73;;;;;;;28.11;49.32;101028.34;128368;1085;64134;-85
2021/07/10 09:35:09;;;;;;;4.07;2.80;;;;;;;28.11;48.97;101034.62;128384;1087;64128;-85
2021/07/10 09:37:38;;;;;;;4.47;2.97;;;;;;;28.10;49.08;101027.47;128333;1087;64009;-85
2021/07/10 09:40:12;;;;;;;4.87;2.77;;;;;;;28.11;49.46;101028.34;128386;1087;64099;-85
2021/07/10 09:42:48;;;;;;;3.77;2.63;;;;;;;28.11;49.21;101028.34;128434;1084;64291;-85
2021/07/10 09:45:16;;;;;;;3.40;2.60;;;;;;;28.11;49.17;101025.63;128412;1086;63070;-86
2021/07/10 09:47:52;;;;;;;3.98;2.68;;;;;;;28.10;49.11;101030.19;128394;1085;64100;-85
2021/07/10 09:50:23;;;;;;;4.17;2.77;;;;;;;28.09;49.22;101015.78;128367;1085;64211;-86
2021/07/10 09:52:50;;;;;;;3.63;2.70;;;;;;;28.11;49.04;101033.77;128409;1086;66036;-85
2021/07/10 09:55:19;;;;;;;4.87;3.07;;;;;;;28.09;49.06;101029.34;128392;1087;64099;-85
2021/07/10 09:58:06;;;;;;;4.10;2.90;;;;;;;28.09;49.04;101014.91;128381;1087;64101;-86
2021/07/10 10:00:35;;;;;;;4.57;2.70;;;;;;;28.09;49.21;101013.06;127988;1087;64141;-86
2021/07/10 10:03:12;;;;;;;3.77;2.73;;;;;;;28.08;48.84;101014.06;128392;1086;64130;-85
2021/07/10 10:05:41;;;;;;;3.93;2.60;;;;;;;28.09;49.03;101015.78;128358;1087;64119;-85
2021/07/10 10:08:11;;;;;;;3.30;2.50;;;;;;;28.09;49.04;101010.34;128385;1086;64102;-84
2021/07/10 10:10:40;;;;;;;5.20;2.60;;;;;;;28.09;48.63;101012.19;128351;1087;64307;-85
2021/07/10 10:13:27;;;;;;;3.10;2.50;;;;;;;28.08;49.00;101019.48;128418;1087;64157;-85
2021/07/10 10:16:02;;;;;;;5.20;2.70;;;;;;;28.08;48.66;101011.34;128354;1087;64154;-85
2021/07/10 10:18:38;;;;;;;5.37;2.87;;;;;;;28.08;48.71;101003.20;128412;1087;64118;-85
2021/07/10 10:21:05;;;;;;;5.07;2.77;;;;;;;28.07;48.85;101006.91;128374;1087;64163;-85
2021/07/10 10:23:35;;;;;;;3.53;2.60;;;;;;;28.08;48.75;101003.20;128419;1087;64247;-85
2021/07/10 10:26:11;;;;;;;4.20;2.80;;;;;;;28.07;48.68;100992.51;128387;1087;64288;-85
2021/07/10 10:28:41;;;;;;;3.77;2.90;;;;;;;28.07;48.88;101000.65;128360;1087;64168;-86
2021/07/10 10:31:16;;;;;;;3.70;2.90;;;;;;;28.08;48.66;100999.66;128379;1087;64076;-86
2021/07/10 10:33:51;;;;;;;3.93;2.77;;;;;;;28.06;48.90;101005.23;128403;1085;64163;-85
2021/07/10 10:36:29;;;;;;;3.87;2.73;;;;;;;28.07;48.80;101003.36;128357;1086;64314;-85
2021/07/10 10:38:56;;;;;;;4.60;2.80;;;;;;;28.06;48.74;100999.80;128361;1087;64163;-85
2021/07/10 10:41:23;;;;;;;3.77;2.50;;;;;;;28.06;48.58;101002.52;128340;1087;64208;-85
2021/07/10 10:43:53;;;;;;;3.47;2.67;;;;;;;28.06;48.57;100982.65;127989;1087;64163;-85
2021/07/10 10:46:23;;;;;;;3.65;2.70;;;;;;;28.06;48.81;100998.94;127885;1085;64272;-84
2021/07/10 10:48:51;;;;;;;4.03;2.73;;;;;;;28.06;48.50;100996.22;127945;1086;64627;-85
2021/07/10 10:51:26;;;;;;;4.03;2.70;;;;;;;28.06;48.65;100988.95;127930;1086;64418;-85
2021/07/10 10:54:23;;;;;;;3.53;2.70;;;;;;;28.06;48.67;100982.65;128357;1087;64134;-85
2021/07/10 10:56:55;;;;;;;3.87;2.60;;;;;;;28.05;48.43;100994.50;128009;1085;63948;-85
2021/07/10 10:59:28;;;;;;;3.30;2.33;;;;;;;28.05;48.42;100995.38;128004;1087;64150;-85
2021/07/10 11:01:55;;;;;;;4.27;2.50;;;;;;;28.05;48.70;100989.95;127946;1086;64141;-85
2021/07/10 11:04:48;;;;;;;4.20;2.83;;;;;;;28.05;48.60;100975.51;128002;1087;64101;-85
2021/07/10 11:07:36;;;;;;;3.80;2.50;;;;;;;28.04;48.30;100977.38;128051;1087;64230;-85
2021/07/10 11:10:14;;;;;;;3.55;2.75;;;;;;;28.05;48.45;100978.22;128369;1087;64137;-84
2021/07/10 11:12:54;;;;;;;4.73;2.60;;;;;;;28.04;48.64;100971.11;128349;1087;64147;-85
2021/07/10 11:15:34;;;;;;;4.73;2.90;;;;;;;28.04;48.42;100961.09;128384;1087;64221;-85
2021/07/10 11:18:03;;;;;;;4.37;2.50;;;;;;;28.03;48.31;100972.95;128386;1087;64134;-85
2021/07/10 11:20:50;;;;;;;3.10;2.40;;;;;;;28.05;48.37;100967.37;128015;1086;64234;-85
2021/07/10 11:23:45;;;;;;;;;;;;;;;28.03;48.41;100961.25;128043;1086;64138;-86
2021/07/10 11:26:39;;;;;;;3.30;2.47;;;;;;;28.03;48.38;100950.41;128394;1087;64466;-85
2021/07/10 11:29:24;;;;;;;3.27;2.40;;;;;;;28.02;48.44;100954.11;128246;1087;64272;-85
2021/07/10 11:32:11;;;;;;;5.10;2.77;;;;;;;28.03;48.38;100947.69;128386;1087;64131;-86
2021/07/10 11:35:01;;;;;;;3.57;2.67;;;;;;;28.02;48.45;100954.95;128299;1085;64291;-86
2021/07/10 11:37:47;;;;;;;3.90;2.70;;;;;;;28.02;48.47;100956.83;128385;1086;64861;-86
2021/07/10 11:40:28;;;;;;;4.03;2.77;;;;;;;28.02;48.47;100940.55;128377;1087;64099;-85
2021/07/10 11:43:02;;;;;;;3.93;2.70;;;;;;;28.03;48.45;100950.41;128337;1087;64307;-85
2021/07/10 11:45:29;;;;;;;3.73;2.77;;;;;;;28.02;48.57;100954.95;128362;1085;64240;-85
2021/07/10 11:48:16;;;;;;;3.57;2.60;;;;;;;28.03;48.39;100936.84;128391;1087;64136;-85
2021/07/10 11:51:05;;;;;;;3.70;2.53;;;;;;;28.03;48.46;100939.55;128361;1087;64126;-85
2021/07/10 11:53:38;;;;;;;3.27;2.37;;;;;;;28.03;48.15;100945.81;128384;1087;64233;-86
2021/07/10 11:56:05;;;;;;;4.33;2.53;;;;;;;28.03;48.21;100937.67;128382;1087;65086;-86
2021/07/10 11:58:33;;;;;;;3.43;2.50;;;;;;;28.04;48.33;100933.13;128387;1085;64252;-86
2021/07/10 12:01:00;;;;;;;4.77;2.80;;;;;;;28.04;48.21;100938.55;128394;1087;64135;-86
2021/07/10 12:03:27;;;;;;;3.70;2.73;;;;;;;28.04;48.07;100931.25;128337;1087;64265;-85